Time;durP1;ratioP1;P1;durP2;ratioP2;P2;SDS_P1;SDS_P2;PMS_P1;PMS_P2;Temp;Humidity;BMP_temperature;BMP_pressure;BME280_temperature;BME280_humidity;BME280_pressure;Samples;Min_cycle;Max_cycle;Signal;HPM_P1;HPM_P2
2021/08/31 00:01:38;;;;;;;11.77;7.70;;;16.70;86.50;;;;;;5077620;28;20425;-84
2021/08/31 00:04:03;;;;;;;9.38;7.93;;;16.70;86.50;;;;;;5078317;28;20033;-84
2021/08/31 00:06:29;;;;;;;10.27;7.80;;;16.60;86.50;;;;;;5075906;28;20045;-84
2021/08/31 00:08:55;;;;;;;12.20;7.22;;;16.60;86.60;;;;;;5042496;28;20037;-84
2021/08/31 00:11:21;;;;;;;10.70;8.00;;;16.60;86.70;;;;;;5074841;28;20022;-85
2021/08/31 00:13:47;;;;;;;11.05;7.35;;;16.60;86.70;;;;;;5075861;28;20033;-84
2021/08/31 00:16:12;;;;;;;8.68;7.25;;;16.60;86.70;;;;;;5076460;28;20044;-84
2021/08/31 00:18:42;;;;;;;7.63;6.63;;;16.50;86.60;;;;;;5075354;28;20021;-84
2021/08/31 00:21:08;;;;;;;7.70;6.93;;;16.60;86.70;;;;;;5073815;28;20112;-84
2021/08/31 00:23:34;;;;;;;8.38;7.07;;;16.60;86.70;;;;;;5075173;28;20163;-83
2021/08/31 00:26:03;;;;;;;9.93;7.13;;;16.50;86.80;;;;;;5044874;28;20026;-83
2021/08/31 00:28:29;;;;;;;8.35;6.70;;;16.50;86.90;;;;;;5044758;28;20112;-84
2021/08/31 00:30:55;;;;;;;8.65;7.15;;;16.50;86.80;;;;;;5077271;28;20046;-84
2021/08/31 00:33:20;;;;;;;10.20;6.82;;;16.50;86.80;;;;;;5078525;28;20485;-83
2021/08/31 00:35:47;;;;;;;9.35;7.00;;;16.50;86.90;;;;;;5077590;28;20416;-84
2021/08/31 00:38:13;;;;;;;7.88;7.00;;;16.50;86.90;;;;;;5078604;28;20025;-83
2021/08/31 00:40:39;;;;;;;10.50;7.55;;;16.50;87.00;;;;;;5077948;28;20033;-83
2021/08/31 00:43:05;;;;;;;8.75;7.20;;;16.40;87.00;;;;;;5076651;28;20026;-84
2021/08/31 00:45:31;;;;;;;11.77;7.68;;;16.40;87.00;;;;;;5074682;28;20026;-83
2021/08/31 00:47:58;;;;;;;9.23;7.13;;;16.40;87.10;;;;;;5077314;28;20030;-84
2021/08/31 00:50:24;;;;;;;9.95;8.05;;;16.40;87.10;;;;;;5077888;28;20022;-84
2021/08/31 00:52:50;;;;;;;12.65;7.75;;;16.40;87.20;;;;;;5076136;28;20437;-84
2021/08/31 00:55:19;;;;;;;12.18;7.88;;;16.40;87.30;;;;;;5076556;28;20022;-84
2021/08/31 00:57:44;;;;;;;11.73;8.65;;;16.30;87.30;;;;;;5076600;28;20025;-84
2021/08/31 01:00:13;;;;;;;10.50;8.27;;;16.30;87.50;;;;;;5045407;28;20483;-84
2021/08/31 01:06:02;;;;;;;9.13;7.38;;;16.30;87.60;;;;;;5045579;28;20040;-84
2021/08/31 01:08:29;;;;;;;11.23;7.90;;;16.30;87.50;;;;;;5048897;28;20018;-84
2021/08/31 01:10:58;;;;;;;11.65;7.78;;;16.30;87.60;;;;;;5081419;28;20474;-84
2021/08/31 01:13:26;;;;;;;8.85;7.47;;;16.40;87.60;;;;;;5081983;28;20089;-84
2021/08/31 01:15:52;;;;;;;9.18;7.93;;;16.30;87.60;;;;;;5079971;28;20028;-84
2021/08/31 01:18:22;;;;;;;8.23;7.28;;;16.40;88.20;;;;;;5079456;28;20030;-84
2021/08/31 01:20:59;;;;;;;11.18;7.45;;;16.40;87.70;;;;;;5079287;28;20025;-84
2021/08/31 01:23:26;;;;;;;9.10;7.43;;;16.30;87.70;;;;;;5045261;28;20126;-84
2021/08/31 01:25:55;;;;;;;8.50;7.10;;;16.40;87.70;;;;;;5078617;28;20179;-83
2021/08/31 01:28:33;;;;;;;7.70;6.90;;;16.40;87.70;;;;;;5079021;28;20089;-84
2021/08/31 01:30:59;;;;;;;11.50;7.40;;;16.40;87.70;;;;;;5080346;28;20046;-84
2021/08/31 01:33:31;;;;;;;7.75;6.93;;;16.40;87.80;;;;;;5045389;28;20079;-83
2021/08/31 01:36:16;;;;;;;10.23;7.50;;;16.40;87.90;;;;;;5060048;28;20460;-83
2021/08/31 01:38:43;;;;;;;7.40;6.63;;;16.30;87.80;;;;;;5078099;28;20017;-83
2021/08/31 01:41:08;;;;;;;7.30;6.13;;;16.30;87.80;;;;;;5079629;28;20022;-82
2021/08/31 01:43:34;;;;;;;8.27;6.78;;;16.30;87.80;;;;;;5079507;28;20115;-83
2021/08/31 01:46:00;;;;;;;7.90;6.30;;;16.40;87.80;;;;;;5079992;28;20100;-83
2021/08/31 01:48:25;;;;;;;9.45;7.70;;;16.30;87.80;;;;;;5078926;28;20052;-84
2021/08/31 01:50:51;;;;;;;7.50;6.38;;;16.30;87.90;;;;;;5046099;28;20481;-84
2021/08/31 01:53:16;;;;;;;7.47;6.55;;;16.30;87.80;;;;;;5077945;28;20029;-84
2021/08/31 01:55:42;;;;;;;10.95;7.57;;;16.30;87.90;;;;;;5078310;28;20030;-84
2021/08/31 01:58:08;;;;;;;9.18;6.82;;;16.30;87.90;;;;;;5076847;28;20390;-83
2021/08/31 02:00:34;;;;;;;8.80;6.57;;;16.30;88.00;;;;;;5080081;28;20024;-83
2021/08/31 02:03:00;;;;;;;9.95;7.30;;;16.30;87.90;;;;;;5079681;28;20033;-83
2021/08/31 02:05:26;;;;;;;9.32;6.78;;;16.30;88.00;;;;;;5080354;28;20022;-84
2021/08/31 02:07:52;;;;;;;9.60;7.13;;;16.20;88.00;;;;;;5079020;28;20052;-83
2021/08/31 02:10:18;;;;;;;7.40;6.60;;;16.20;88.00;;;;;;5078387;28;20025;-84
2021/08/31 02:12:51;;;;;;;8.50;6.47;;;16.20;88.10;;;;;;5080231;28;20036;-84
2021/08/31 02:15:17;;;;;;;8.35;6.45;;;16.20;88.10;;;;;;5079544;28;20032;-84
2021/08/31 02:17:43;;;;;;;8.07;6.38;;;16.20;88.20;;;;;;5076367;28;20385;-84
2021/08/31 02:20:10;;;;;;;8.35;6.32;;;16.20;88.20;;;;;;5076802;28;20017;-83
2021/08/31 02:22:37;;;;;;;8.40;6.20;;;16.20;88.20;;;;;;5079383;28;20014;-84
2021/08/31 02:25:06;;;;;;;7.70;5.90;;;16.20;88.10;;;;;;5080578;28;20485;-84
2021/08/31 02:27:32;;;;;;;7.65;6.22;;;16.20;88.20;;;;;;5079715;28;20030;-84
2021/08/31 02:30:01;;;;;;;10.27;6.70;;;16.20;88.10;;;;;;5079272;28;20025;-83
2021/08/31 02:32:27;;;;;;;7.50;6.18;;;16.20;88.20;;;;;;5077996;28;20029;-83
2021/08/31 02:34:52;;;;;;;8.02;6.15;;;16.20;88.20;;;;;;5044659;28;20026;-83
2021/08/31 02:37:18;;;;;;;7.75;6.00;;;16.20;88.20;;;;;;5042545;28;20026;-83
2021/08/31 02:39:44;;;;;;;8.93;6.50;;;16.20;88.20;;;;;;5077357;28;20120;-83
2021/08/31 02:42:10;;;;;;;7.93;6.05;;;16.20;88.30;;;;;;5078006;28;20021;-83
2021/08/31 02:44:35;;;;;;;8.75;6.30;;;16.20;88.30;;;;;;5079179;28;20044;-84
2021/08/31 02:50:26;;;;;;;10.23;6.47;;;16.20;88.30;;;;;;5044621;28;20037;-83
2021/08/31 02:52:52;;;;;;;7.93;5.85;;;16.20;88.30;;;;;;5074955;28;20030;-84
2021/08/31 02:55:18;;;;;;;9.20;6.38;;;16.20;88.30;;;;;;5075274;28;20025;-83
2021/08/31 02:57:43;;;;;;;8.35;5.65;;;16.10;88.30;;;;;;5076364;28;20057;-83
2021/08/31 03:00:16;;;;;;;7.72;6.05;;;16.10;88.40;;;;;;5043291;28;20030;-83
2021/08/31 03:02:42;;;;;;;9.07;5.85;;;16.10;88.50;;;;;;5075227;28;20017;-83
2021/08/31 03:05:08;;;;;;;8.73;5.93;;;16.10;88.50;;;;;;5072056;28;20025;-84
2021/08/31 03:07:34;;;;;;;9.27;6.07;;;16.10;88.60;;;;;;5067177;28;20147;-84
2021/08/31 03:09:59;;;;;;;7.57;5.70;;;16.10;88.60;;;;;;5038347;28;20053;-84
2021/08/31 03:12:25;;;;;;;9.32;6.22;;;16.10;88.60;;;;;;5072581;28;20026;-83
2021/08/31 03:14:52;;;;;;;7.53;5.63;;;16.10;88.60;;;;;;5040163;28;20460;-84
2021/08/31 03:17:17;;;;;;;9.98;5.88;;;16.10;88.50;;;;;;5073712;28;20477;-84
2021/08/31 03:19:43;;;;;;;8.40;5.90;;;16.10;88.50;;;;;;5041953;28;20036;-84
2021/08/31 03:22:10;;;;;;;9.45;5.50;;;16.10;88.50;;;;;;5042909;28;20047;-84
2021/08/31 03:24:37;;;;;;;8.45;5.50;;;16.10;88.60;;;;;;5042109;28;20036;-83
2021/08/31 03:27:06;;;;;;;7.90;6.05;;;16.10;88.50;;;;;;5075411;28;20025;-85
2021/08/31 03:29:32;;;;;;;8.43;6.00;;;16.10;88.50;;;;;;5043911;28;20029;-84
2021/08/31 03:32:01;;;;;;;9.57;6.43;;;16.20;88.50;;;;;;5063324;28;20028;-84
2021/08/31 03:34:27;;;;;;;8.82;5.55;;;16.20;88.50;;;;;;5065927;28;20460;-83
2021/08/31 03:36:52;;;;;;;7.90;5.90;;;16.20;88.50;;;;;;5066874;28;20032;-82
2021/08/31 03:39:21;;;;;;;9.82;6.70;;;16.20;88.50;;;;;;5067388;28;20026;-83
2021/08/31 03:41:47;;;;;;;8.13;5.63;;;16.20;88.50;;;;;;5067770;28;20050;-83
2021/08/31 03:44:13;;;;;;;8.93;5.90;;;16.20;88.50;;;;;;5066314;28;20025;-84
2021/08/31 03:46:39;;;;;;;8.73;6.30;;;16.20;88.50;;;;;;5065959;28;20025;-83
2021/08/31 03:49:04;;;;;;;9.95;6.00;;;16.20;88.50;;;;;;5065825;28;20025;-84
2021/08/31 03:51:30;;;;;;;9.02;5.80;;;16.20;88.50;;;;;;5063900;28;20044;-84
2021/08/31 03:53:56;;;;;;;9.32;6.03;;;16.20;88.50;;;;;;5061884;28;20035;-84
2021/08/31 03:56:24;;;;;;;9.77;5.60;;;16.20;88.50;;;;;;5080993;28;20074;-83
2021/08/31 03:58:50;;;;;;;10.15;5.90;;;16.20;88.50;;;;;;5062856;28;20476;-84
2021/08/31 04:01:16;;;;;;;9.90;5.95;;;16.20;88.50;;;;;;5061558;28;20147;-84
2021/08/31 04:03:41;;;;;;;9.10;5.88;;;16.30;88.50;;;;;;5060215;28;20115;-84
2021/08/31 04:06:07;;;;;;;7.45;5.40;;;16.30;88.60;;;;;;5061124;28;20036;-84
2021/08/31 04:08:33;;;;;;;7.53;5.03;;;16.30;88.50;;;;;;5061509;28;20036;-83
2021/08/31 04:10:58;;;;;;;8.02;5.20;;;16.30;88.50;;;;;;5062162;28;20024;-83
2021/08/31 04:13:24;;;;;;;8.07;5.20;;;16.30;88.50;;;;;;5060133;28;20028;-84
2021/08/31 04:15:50;;;;;;;7.53;5.10;;;16.30;88.50;;;;;;5059956;28;20021;-84
2021/08/31 04:18:15;;;;;;;9.60;4.68;;;16.30;88.40;;;;;;5059207;28;20017;-84
2021/08/31 04:20:41;;;;;;;7.90;4.60;;;16.40;88.50;;;;;;5060177;28;20012;-84
2021/08/31 04:23:07;;;;;;;6.22;4.53;;;16.40;88.40;;;;;;5060118;28;20028;-85
2021/08/31 04:25:34;;;;;;;6.85;3.75;;;16.40;88.40;;;;;;5061378;28;20052;-84
2021/08/31 04:28:00;;;;;;;8.65;4.55;;;16.40;88.40;;;;;;5079044;28;20038;-84
2021/08/31 04:30:26;;;;;;;9.50;4.28;;;16.40;88.30;;;;;;5060194;28;20056;-84
2021/08/31 04:32:52;;;;;;;7.75;4.25;;;16.40;89.00;;;;;;5060640;28;20028;-84
2021/08/31 04:35:17;;;;;;;9.20;4.38;;;16.40;88.40;;;;;;5060491;28;20037;-84
2021/08/31 04:37:43;;;;;;;7.88;4.40;;;16.40;88.30;;;;;;5060871;28;20082;-83
2021/08/31 04:43:56;;;;;;;7.45;3.63;;;16.50;88.30;;;;;;5082743;28;20454;-83
2021/08/31 04:46:21;;;;;;;9.43;3.83;;;16.50;88.20;;;;;;5065895;28;20032;-83
2021/08/31 04:48:47;;;;;;;7.57;4.22;;;16.50;88.10;;;;;;5066022;28;20021;-83
2021/08/31 04:51:13;;;;;;;6.13;4.00;;;16.50;88.20;;;;;;5065279;28;20025;-83
2021/08/31 04:53:38;;;;;;;6.85;3.70;;;16.50;88.10;;;;;;5065254;28;20028;-83
2021/08/31 04:56:04;;;;;;;8.00;3.75;;;16.50;88.00;;;;;;5065634;28;20103;-83
2021/08/31 04:58:30;;;;;;;7.80;3.58;;;16.50;88.00;;;;;;5064440;28;20044;-83
2021/08/31 05:00:55;;;;;;;7.03;3.78;;;16.50;88.00;;;;;;5064732;28;20025;-83
2021/08/31 05:03:21;;;;;;;7.53;3.67;;;16.50;87.90;;;;;;5063985;28;20024;-83
2021/08/31 05:05:47;;;;;;;7.18;3.40;;;16.50;87.90;;;;;;5064481;28;20044;-83
2021/08/31 05:08:13;;;;;;;8.48;3.70;;;16.50;87.90;;;;;;5064999;28;20016;-83
2021/08/31 05:10:38;;;;;;;6.82;3.60;;;16.60;87.90;;;;;;5065883;28;20085;-83
2021/08/31 05:13:04;;;;;;;4.95;3.15;;;16.60;87.80;;;;;;5064798;28;20487;-83
2021/08/31 05:15:31;;;;;;;5.78;3.40;;;16.60;87.70;;;;;;5063658;28;20028;-84
2021/08/31 05:17:58;;;;;;;6.95;3.70;;;16.60;87.70;;;;;;5081547;28;20029;-83
2021/08/31 05:20:25;;;;;;;6.72;3.60;;;16.70;87.70;;;;;;5063762;28;20426;-83
2021/08/31 05:22:51;;;;;;;6.88;3.58;;;16.70;87.60;;;;;;5063293;28;20141;-83
2021/08/31 05:25:17;;;;;;;6.05;3.47;;;16.70;87.50;;;;;;5065541;28;20028;-83
2021/08/31 05:27:43;;;;;;;7.55;3.25;;;16.70;87.40;;;;;;5066954;28;20024;-83
2021/08/31 05:30:09;;;;;;;7.43;3.45;;;16.70;87.30;;;;;;5066504;28;20048;-83
2021/08/31 05:32:35;;;;;;;7.60;3.45;;;16.70;87.30;;;;;;5065016;28;20032;-83
2021/08/31 05:35:02;;;;;;;8.18;3.58;;;16.70;87.20;;;;;;5083928;28;20096;-82
2021/08/31 05:37:28;;;;;;;9.18;3.38;;;16.70;87.80;;;;;;5065088;28;20059;-83
2021/08/31 05:39:53;;;;;;;8.07;3.42;;;16.70;87.20;;;;;;5065466;28;20021;-84
2021/08/31 05:42:19;;;;;;;9.18;3.72;;;16.70;87.10;;;;;;5066021;28;20016;-84
2021/08/31 05:44:48;;;;;;;5.45;3.40;;;16.70;87.10;;;;;;5066772;28;20060;-84
2021/08/31 05:47:16;;;;;;;7.18;3.40;;;16.80;87.10;;;;;;5068003;28;20035;-84
2021/08/31 05:49:42;;;;;;;6.80;3.05;;;16.80;87.10;;;;;;5066643;28;20033;-84
2021/08/31 05:52:10;;;;;;;5.38;3.28;;;16.80;87.00;;;;;;5066991;28;20030;-84
2021/08/31 05:54:36;;;;;;;5.85;3.42;;;16.80;86.90;;;;;;5066289;28;20060;-84
2021/08/31 05:57:04;;;;;;;5.25;3.38;;;16.80;86.90;;;;;;5064299;28;20408;-84
2021/08/31 05:59:30;;;;;;;5.18;3.42;;;16.90;86.90;;;;;;5063147;28;20023;-84
2021/08/31 06:01:59;;;;;;;5.10;3.00;;;16.90;86.90;;;;;;5064426;28;20020;-84
2021/08/31 06:04:27;;;;;;;4.50;2.70;;;16.90;86.80;;;;;;5062599;28;20024;-84
2021/08/31 06:06:53;;;;;;;6.55;3.30;;;16.90;86.70;;;;;;5063846;28;20020;-83
2021/08/31 06:09:25;;;;;;;4.97;3.10;;;17.00;86.70;;;;;;5065883;28;20042;-84
2021/08/31 06:11:51;;;;;;;5.50;3.50;;;17.00;86.50;;;;;;5064429;28;20078;-84
2021/08/31 06:17:39;;;;;;;8.93;3.88;;;17.10;86.30;;;;;;5084986;28;20028;-84
2021/08/31 06:20:07;;;;;;;7.28;3.40;;;17.10;86.20;;;;;;5069290;28;20025;-83
2021/08/31 06:22:33;;;;;;;6.75;3.25;;;17.20;86.20;;;;;;5072491;28;20081;-84
2021/08/31 06:24:59;;;;;;;10.63;3.53;;;17.20;86.10;;;;;;5073246;28;20021;-84
2021/08/31 06:27:25;;;;;;;6.45;3.83;;;17.30;86.10;;;;;;5073931;28;20028;-84
2021/08/31 06:29:51;;;;;;;6.43;3.83;;;17.30;86.00;;;;;;5104119;28;20044;-84
2021/08/31 06:32:16;;;;;;;8.77;3.63;;;17.30;85.90;;;;;;5088771;28;20064;-83
2021/08/31 06:34:42;;;;;;;6.80;3.38;;;17.30;85.80;;;;;;5071279;28;20025;-84
2021/08/31 06:37:08;;;;;;;6.82;3.20;;;17.30;85.80;;;;;;5076387;28;20038;-83
2021/08/31 06:39:34;;;;;;;6.03;3.75;;;17.30;85.80;;;;;;5076351;28;20031;-83
2021/08/31 06:41:59;;;;;;;8.95;3.63;;;17.30;85.70;;;;;;5069950;28;20092;-84
2021/08/31 06:44:25;;;;;;;7.65;3.60;;;17.30;85.60;;;;;;5068267;28;20025;-85
2021/08/31 06:46:51;;;;;;;5.97;3.47;;;17.40;85.60;;;;;;5064593;28;20020;-83
2021/08/31 06:49:16;;;;;;;8.00;3.45;;;17.40;85.50;;;;;;5065415;28;20165;-83
2021/08/31 06:51:42;;;;;;;7.68;4.10;;;17.50;85.50;;;;;;5067346;28;20025;-85
2021/08/31 06:54:09;;;;;;;7.45;3.67;;;17.50;85.30;;;;;;5065264;28;20027;-84
2021/08/31 06:56:34;;;;;;;7.50;3.85;;;17.50;85.30;;;;;;5066971;28;20020;-84
2021/08/31 06:59:00;;;;;;;5.90;3.38;;;17.50;85.10;;;;;;5061797;28;20479;-84
2021/08/31 07:01:26;;;;;;;7.00;3.30;;;17.60;85.10;;;;;;5081520;28;20063;-88
2021/08/31 07:03:51;;;;;;;6.18;3.63;;;17.60;85.00;;;;;;5075757;28;20500;-82
2021/08/31 07:06:17;;;;;;;6.22;3.50;;;17.70;84.90;;;;;;5056359;28;20040;-83
2021/08/31 07:08:43;;;;;;;6.15;3.50;;;17.70;84.80;;;;;;5056719;28;20034;-83
2021/08/31 07:11:08;;;;;;;5.70;3.40;;;17.80;84.80;;;;;;5056566;28;20032;-83
2021/08/31 07:13:34;;;;;;;4.57;3.28;;;17.80;84.70;;;;;;5074115;28;20028;-83
2021/08/31 07:16:03;;;;;;;6.03;3.35;;;17.80;84.50;;;;;;5056582;28;20522;-84
2021/08/31 07:18:28;;;;;;;7.38;3.47;;;17.90;84.40;;;;;;5056447;28;20108;-83
2021/08/31 07:20:54;;;;;;;7.45;3.50;;;17.90;84.30;;;;;;5074754;28;20056;-83
2021/08/31 07:23:20;;;;;;;7.78;3.25;;;18.00;84.20;;;;;;5053785;28;20032;-85
2021/08/31 07:25:48;;;;;;;7.40;3.60;;;18.00;84.10;;;;;;5056456;28;20397;-84
2021/08/31 07:28:14;;;;;;;8.80;4.10;;;18.00;84.00;;;;;;5074429;28;20036;-83
2021/08/31 07:30:39;;;;;;;9.48;4.18;;;18.00;84.00;;;;;;5055470;28;20044;-83
2021/08/31 07:33:07;;;;;;;8.13;3.40;;;18.00;83.80;;;;;;5056402;28;20537;-84
2021/08/31 07:35:33;;;;;;;5.65;3.42;;;18.00;83.80;;;;;;5055959;28;20122;-84
2021/08/31 07:38:00;;;;;;;5.13;3.35;;;18.10;83.80;;;;;;5055637;28;20111;-83
2021/08/31 07:40:26;;;;;;;6.78;3.35;;;18.10;83.70;;;;;;5056339;28;20028;-83
2021/08/31 07:42:52;;;;;;;4.93;3.13;;;18.10;83.50;;;;;;5062570;28;20028;-84
2021/08/31 07:45:19;;;;;;;4.55;3.38;;;18.20;83.40;;;;;;5063908;28;20028;-83
2021/08/31 07:47:44;;;;;;;7.10;3.97;;;18.20;83.20;;;;;;5061292;28;20046;-82
2021/08/31 07:50:11;;;;;;;5.32;3.20;;;18.20;83.10;;;;;;5063299;28;20050;-83
2021/08/31 07:52:36;;;;;;;7.68;3.45;;;18.30;83.10;;;;;;5064442;28;20028;-83
2021/08/31 07:55:08;;;;;;;5.78;3.40;;;18.40;83.00;;;;;;5064780;28;20041;-84
2021/08/31 07:57:35;;;;;;;9.20;4.80;;;18.40;82.80;;;;;;5073775;28;20039;-83
2021/08/31 08:00:05;;;;;;;6.43;3.63;;;18.40;82.70;;;;;;5076042;28;20032;-84
2021/08/31 08:02:33;;;;;;;6.22;3.30;;;18.40;82.60;;;;;;5076423;28;20119;-83
2021/08/31 08:04:59;;;;;;;5.28;3.05;;;18.50;82.60;;;;;;5076315;28;20052;-84
2021/08/31 08:07:28;;;;;;;7.55;3.40;;;18.50;82.50;;;;;;5076302;28;20028;-83
2021/08/31 08:09:54;;;;;;;6.22;3.13;;;18.60;82.30;;;;;;5076047;28;20098;-83
2021/08/31 08:12:21;;;;;;;5.70;3.30;;;18.60;82.20;;;;;;5075826;28;20107;-83
2021/08/31 08:14:49;;;;;;;6.03;3.28;;;18.70;82.10;;;;;;5075288;28;20119;-83
2021/08/31 08:17:16;;;;;;;5.00;3.08;;;18.70;81.90;;;;;;5076961;28;20081;-83
2021/08/31 08:19:42;;;;;;;5.22;3.17;;;18.70;81.90;;;;;;5080310;28;20021;-84
2021/08/31 08:22:08;;;;;;;7.30;3.58;;;18.70;81.80;;;;;;5080468;28;20024;-83
2021/08/31 08:24:33;;;;;;;5.03;3.35;;;18.60;81.90;;;;;;5079239;28;20015;-83
2021/08/31 08:27:00;;;;;;;6.35;3.10;;;18.60;81.80;;;;;;5079552;28;20040;-81
2021/08/31 08:29:28;;;;;;;4.90;2.92;;;18.60;81.70;;;;;;5079350;28;20035;-83
2021/08/31 08:31:55;;;;;;;6.00;2.85;;;18.70;81.80;;;;;;5079260;28;20119;-84
2021/08/31 08:34:29;;;;;;;5.75;3.00;;;18.70;81.60;;;;;;5079687;28;20070;-84
2021/08/31 08:36:57;;;;;;;4.72;3.08;;;18.80;81.30;;;;;;5080605;28;20009;-84
2021/08/31 08:39:23;;;;;;;5.47;2.67;;;18.90;80.80;;;;;;5079887;28;20017;-81
2021/08/31 08:41:49;;;;;;;8.35;3.38;;;18.90;80.60;;;;;;5073474;28;20029;-82
2021/08/31 08:44:14;;;;;;;4.53;3.05;;;19.00;80.10;;;;;;5077326;28;20044;-82
2021/08/31 08:46:41;;;;;;;7.45;3.20;;;19.10;79.70;;;;;;5079805;28;20017;-82
2021/08/31 08:49:12;;;;;;;5.75;2.78;;;19.10;79.40;;;;;;5080114;28;20089;-82
2021/08/31 08:51:38;;;;;;;7.38;3.30;;;19.20;79.00;;;;;;5079430;28;20020;-83
2021/08/31 08:54:06;;;;;;;6.10;3.13;;;19.20;79.00;;;;;;5094687;28;20025;-83
2021/08/31 08:56:35;;;;;;;3.60;2.70;;;19.30;78.80;;;;;;5077443;28;20024;-84
2021/08/31 08:59:01;;;;;;;7.40;3.53;;;19.40;78.60;;;;;;5093331;28;20088;-82
2021/08/31 09:01:42;;;;;;;4.53;3.00;;;19.50;78.20;;;;;;5078295;28;20035;-84
2021/08/31 09:04:08;;;;;;;6.60;2.75;;;19.50;77.50;;;;;;5074503;28;20020;-83
2021/08/31 09:06:34;;;;;;;6.28;3.05;;;19.50;77.60;;;;;;5078032;28;20017;-82
2021/08/31 09:09:02;;;;;;;5.78;2.90;;;19.60;76.90;;;;;;5073992;28;20028;-82
2021/08/31 09:11:31;;;;;;;4.38;3.03;;;19.60;76.90;;;;;;5077599;28;20005;-83
2021/08/31 09:14:27;;;;;;;5.70;3.50;;;19.70;76.70;;;;;;5076628;28;20481;-84
2021/08/31 09:16:55;;;;;;;4.80;3.20;;;19.70;75.60;;;;;;5076338;28;20031;-84
2021/08/31 09:19:31;;;;;;;6.00;3.03;;;19.70;76.00;;;;;;5076442;28;20028;-84
2021/08/31 09:22:38;;;;;;;3.95;2.80;;;19.70;75.60;;;;;;5077532;28;20044;-83
2021/08/31 09:25:09;;;;;;;3.92;2.70;;;19.70;75.90;;;;;;5068823;28;20037;-83
2021/08/31 09:27:45;;;;;;;5.45;3.22;;;19.80;75.70;;;;;;5077283;28;20374;-84
2021/08/31 09:30:23;;;;;;;4.72;2.80;;;19.90;75.20;;;;;;5077128;28;20403;-83
2021/08/31 09:33:09;;;;;;;6.07;3.05;;;19.90;75.30;;;;;;5077193;28;20009;-84
2021/08/31 09:35:36;;;;;;;4.93;2.78;;;19.80;75.10;;;;;;5077416;28;20028;-83
2021/08/31 09:38:08;;;;;;;6.43;3.08;;;19.70;75.20;;;;;;5094905;28;20023;-84
2021/08/31 09:40:41;;;;;;;5.18;2.75;;;19.70;75.40;;;;;;5076087;28;20017;-85
2021/08/31 09:43:12;;;;;;;3.90;2.85;;;19.80;75.30;;;;;;5059459;28;20029;-85
2021/08/31 09:45:43;;;;;;;6.38;3.25;;;19.80;75.30;;;;;;5059506;28;20040;-83
2021/08/31 09:48:12;;;;;;;3.85;2.78;;;19.90;74.50;;;;;;5059735;28;20082;-84
2021/08/31 09:50:58;;;;;;;4.82;2.80;;;20.00;74.40;;;;;;5058413;28;20518;-84
2021/08/31 09:53:29;;;;;;;4.30;2.90;;;20.10;74.20;;;;;;5058536;28;20032;-84
2021/08/31 09:56:14;;;;;;;4.00;2.78;;;20.20;74.00;;;;;;5058953;28;20051;-84
2021/08/31 09:58:47;;;;;;;5.40;3.25;;;20.40;73.40;;;;;;5090126;28;20452;-84
2021/08/31 10:01:12;;;;;;;4.20;2.45;;;20.50;72.70;;;;;;5076575;28;20096;-84
2021/08/31 10:03:39;;;;;;;4.35;2.85;;;20.60;72.80;;;;;;5059000;28;20518;-84
2021/08/31 10:06:06;;;;;;;6.18;3.13;;;20.60;72.60;;;;;;5058632;28;20119;-85
2021/08/31 10:08:34;;;;;;;4.78;2.80;;;20.60;72.20;;;;;;5076899;28;20483;-84
2021/08/31 10:11:02;;;;;;;5.63;2.67;;;20.60;72.30;;;;;;5058243;28;20021;-85
2021/08/31 10:13:35;;;;;;;3.85;3.00;;;20.60;72.40;;;;;;5058555;28;20119;-85
2021/08/31 10:16:01;;;;;;;5.70;3.30;;;20.70;72.40;;;;;;5077479;28;20024;-85
2021/08/31 10:18:28;;;;;;;4.53;3.08;;;20.70;72.40;;;;;;5058773;28;20024;-84
2021/08/31 10:21:08;;;;;;;4.65;2.95;;;20.70;72.10;;;;;;5058522;28;20020;-84
2021/08/31 10:23:42;;;;;;;5.20;3.30;;;20.80;72.20;;;;;;5059776;28;20353;-83
2021/08/31 10:26:29;;;;;;;4.65;3.00;;;20.80;71.80;;;;;;5059758;28;20365;-83
2021/08/31 10:29:16;;;;;;;6.50;3.40;;;20.90;71.30;;;;;;5059082;28;20503;-85
2021/08/31 10:31:43;;;;;;;6.97;3.20;;;21.00;70.10;;;;;;5058787;28;20076;-85
2021/08/31 10:34:34;;;;;;;4.70;2.90;;;21.00;69.90;;;;;;5058833;28;20130;-84
2021/08/31 10:37:05;;;;;;;5.20;2.78;;;21.00;69.50;;;;;;5057463;28;20507;-85
2021/08/31 10:39:49;;;;;;;4.18;3.05;;;21.00;69.90;;;;;;5058305;28;20020;-85
2021/08/31 10:42:24;;;;;;;3.78;2.67;;;21.10;69.60;;;;;;5058078;28;20017;-85
2021/08/31 10:44:51;;;;;;;5.03;2.90;;;21.10;69.70;;;;;;5058563;28;20081;-84
2021/08/31 10:47:19;;;;;;;6.40;3.45;;;21.20;69.50;;;;;;5059503;28;20029;-86
2021/08/31 10:49:56;;;;;;;7.22;3.28;;;21.30;68.70;;;;;;5058873;28;20392;-86
2021/08/31 10:52:43;;;;;;;3.92;3.03;;;21.20;69.10;;;;;;5058574;28;20039;-86
2021/08/31 10:55:24;;;;;;;4.53;2.92;;;21.10;69.50;;;;;;5058333;28;20074;-86
2021/08/31 10:57:54;;;;;;;3.70;2.60;;;21.00;69.80;;;;;;5057529;28;20024;-83
2021/08/31 11:00:20;;;;;;;4.30;2.67;;;21.00;70.00;;;;;;5058092;28;20502;-84
2021/08/31 11:02:48;;;;;;;5.45;2.88;;;21.10;69.80;;;;;;5057998;28;20115;-86
2021/08/31 11:05:26;;;;;;;4.13;2.92;;;21.20;69.10;;;;;;5057838;28;20115;-85
2021/08/31 11:07:59;;;;;;;3.78;2.78;;;21.40;68.70;;;;;;5057109;28;20028;-86
2021/08/31 11:10:26;;;;;;;;;;;21.40;67.90;;;;;;5057885;28;20112;-85
2021/08/31 11:12:53;;;;;;;8.20;3.38;;;21.40;65.70;;;;;;5057815;28;19904;-85
2021/08/31 11:15:27;;;;;;;4.38;3.08;;;21.30;66.50;;;;;;5057304;28;20020;-86
2021/08/31 11:17:54;;;;;;;3.75;3.28;;;21.30;66.50;;;;;;5057198;28;20469;-85
2021/08/31 11:20:26;;;;;;;3.63;2.97;;;21.40;66.30;;;;;;5076219;28;20023;-85
2021/08/31 11:23:10;;;;;;;6.13;2.85;;;21.50;66.20;;;;;;5057927;28;20013;-85
2021/08/31 11:25:41;;;;;;;5.95;2.85;;;21.60;65.70;;;;;;5057088;28;20031;-85
2021/08/31 11:28:19;;;;;;;7.40;3.72;;;21.60;66.10;;;;;;5057100;28;20021;-83
2021/08/31 11:30:57;;;;;;;4.53;2.65;;;21.60;66.40;;;;;;5074594;28;20036;-84
2021/08/31 11:33:27;;;;;;;4.82;2.55;;;21.60;66.50;;;;;;5056668;28;20035;-84
2021/08/31 11:36:06;;;;;;;5.60;3.00;;;21.70;66.30;;;;;;5056660;28;20392;-84
2021/08/31 11:38:32;;;;;;;4.38;2.63;;;21.70;66.10;;;;;;5056605;28;20484;-85
2021/08/31 11:44:24;;;;;;;3.58;2.33;;;21.90;66.10;;;;;;5074690;28;20035;-84
2021/08/31 11:46:55;;;;;;;3.67;2.90;;;22.10;65.50;;;;;;5055960;28;20541;-84
2021/08/31 11:53:13;;;;;;;4.30;2.65;;;22.20;64.30;;;;;;5074610;28;20027;-85
2021/08/31 11:55:39;;;;;;;4.00;2.65;;;22.20;64.70;;;;;;5056547;28;20017;-85
2021/08/31 11:58:04;;;;;;;3.20;2.40;;;22.10;64.60;;;;;;5055918;28;20032;-85
2021/08/31 12:01:02;;;;;;;4.28;2.60;;;22.10;64.80;;;;;;5074563;28;20016;-85
2021/08/31 12:03:30;;;;;;;3.65;2.70;;;22.10;64.70;;;;;;5012184;28;20083;-85
2021/08/31 12:06:06;;;;;;;3.08;2.60;;;22.20;64.80;;;;;;5056355;28;20021;-85
2021/08/31 12:11:55;;;;;;;3.25;2.50;;;22.50;64.00;;;;;;5074047;28;20059;-85
2021/08/31 12:14:21;;;;;;;5.13;2.60;;;22.50;63.70;;;;;;5089615;28;20461;-85
2021/08/31 12:16:50;;;;;;;4.80;2.80;;;22.50;63.60;;;;;;5056450;28;20020;-85
2021/08/31 12:19:20;;;;;;;4.95;2.35;;;22.50;63.50;;;;;;5056674;28;20024;-85
2021/08/31 12:22:08;;;;;;;4.80;2.88;;;22.40;64.10;;;;;;5056330;28;20017;-84
2021/08/31 12:24:34;;;;;;;5.30;2.70;;;22.40;63.10;;;;;;5055735;28;20021;-81
2021/08/31 12:27:11;;;;;;;4.93;2.70;;;22.40;63.60;;;;;;5056439;28;20430;-85
2021/08/31 12:29:49;;;;;;;5.50;2.72;;;22.40;63.00;;;;;;5056339;28;20027;-82
2021/08/31 12:32:23;;;;;;;4.18;2.55;;;22.40;63.10;;;;;;5089240;28;20035;-83
2021/08/31 12:34:52;;;;;;;5.43;2.63;;;22.40;63.00;;;;;;5055902;28;20027;-84
2021/08/31 12:41:05;;;;;;;3.35;2.35;;;22.60;62.60;;;;;;5074352;28;20023;-84
2021/08/31 12:43:53;;;;;;;4.80;2.80;;;22.90;62.70;;;;;;5055766;28;20035;-85
2021/08/31 12:46:25;;;;;;;4.65;2.70;;;22.90;62.60;;;;;;5055614;28;20036;-85
2021/08/31 12:49:00;;;;;;;4.40;2.67;;;22.80;62.90;;;;;;5056467;28;20480;-84
2021/08/31 12:51:36;;;;;;;5.35;2.95;;;22.70;63.10;;;;;;5055986;28;20051;-84
2021/08/31 12:54:07;;;;;;;4.97;3.00;;;22.60;63.50;;;;;;5056443;28;20025;-84
2021/08/31 12:56:48;;;;;;;6.95;3.30;;;22.70;63.70;;;;;;5055825;28;20380;-85
2021/08/31 12:59:14;;;;;;;6.00;2.70;;;22.70;62.90;;;;;;5056892;28;20048;-84
2021/08/31 13:01:51;;;;;;;5.38;2.70;;;22.70;62.90;;;;;;5055108;28;20024;-85
2021/08/31 13:04:16;;;;;;;4.13;2.53;;;22.70;62.50;;;;;;5058107;28;20029;-84
2021/08/31 13:06:53;;;;;;;6.35;3.22;;;22.80;62.30;;;;;;5058785;28;20449;-84
2021/08/31 13:09:24;;;;;;;7.28;2.83;;;22.90;62.10;;;;;;5077355;28;20093;-84
2021/08/31 13:11:52;;;;;;;4.25;2.70;;;23.00;61.90;;;;;;5058905;28;20479;-85
2021/08/31 13:14:23;;;;;;;6.03;2.60;;;22.90;62.30;;;;;;5059431;28;20039;-84
2021/08/31 13:16:50;;;;;;;5.30;2.80;;;22.90;62.50;;;;;;5059302;28;20511;-84
2021/08/31 13:19:18;;;;;;;4.45;2.33;;;23.00;62.50;;;;;;5059631;28;20388;-85
2021/08/31 13:21:45;;;;;;;5.28;2.90;;;23.10;62.50;;;;;;5059430;28;20028;-84